Time;durP1;ratioP1;P1;durP2;ratioP2;P2;SDS_P1;SDS_P2;PMS_P1;PMS_P2;Temp;Humidity;BMP_temperature;BMP_pressure;BME280_temperature;BME280_humidity;BME280_pressure;Samples;Min_cycle;Max_cycle;Signal;HPM_P1;HPM_P2
2022/07/21 00:01:06;;;;;;;10.63;7.13;;;;;;;21.44;68.65;101662.31;4996056;28;20477;-85
2022/07/21 00:03:31;;;;;;;10.52;7.57;;;;;;;21.35;69.07;101650.88;4997500;28;20030;-85
2022/07/21 00:05:57;;;;;;;11.23;7.60;;;;;;;21.46;68.49;101662.28;4996072;28;20145;-85
2022/07/21 00:08:22;;;;;;;10.60;8.10;;;;;;;21.34;69.43;101660.75;4980406;28;20125;-85
2022/07/21 00:10:48;;;;;;;9.93;7.60;;;;;;;21.20;69.86;101658.31;4996961;28;20121;-85
2022/07/21 00:13:13;;;;;;;10.57;8.13;;;;;;;20.98;70.64;101663.22;4997070;28;20062;-85
2022/07/21 00:15:39;;;;;;;10.35;8.38;;;;;;;20.84;71.34;101665.28;4997101;28;20022;-85
2022/07/21 00:18:05;;;;;;;11.55;8.20;;;;;;;20.83;71.71;101668.00;4979672;28;20035;-85
2022/07/21 00:20:30;;;;;;;10.48;7.90;;;;;;;20.91;71.02;101664.25;4997038;28;20549;-84
2022/07/21 00:22:57;;;;;;;10.65;7.95;;;;;;;20.91;71.13;101666.94;4996838;28;20089;-84
2022/07/21 00:25:23;;;;;;;10.70;7.90;;;;;;;20.86;71.01;101660.78;4997020;28;20080;-85
2022/07/21 00:27:49;;;;;;;10.07;7.85;;;;;;;20.93;70.63;101664.22;4995692;28;20026;-85
2022/07/21 00:30:15;;;;;;;10.15;8.07;;;;;;;20.93;71.25;101669.59;4997011;28;20033;-84
2022/07/21 00:32:42;;;;;;;11.85;7.90;;;;;;;21.01;70.93;101675.69;4996897;28;20039;-84
2022/07/21 00:35:09;;;;;;;10.43;8.32;;;;;;;21.01;70.75;101667.63;4996867;28;20485;-85
2022/07/21 00:37:35;;;;;;;9.43;7.70;;;;;;;21.11;69.92;101669.25;4996648;28;20045;-85
2022/07/21 00:40:01;;;;;;;10.82;8.70;;;;;;;21.00;70.63;101676.63;4996401;28;20030;-85
2022/07/21 00:42:29;;;;;;;11.93;8.82;;;;;;;20.86;71.67;101666.16;4996495;28;20125;-85
2022/07/21 00:44:55;;;;;;;12.27;8.52;;;;;;;20.91;71.29;101666.94;4996316;28;20109;-85
2022/07/21 00:47:22;;;;;;;9.73;8.02;;;;;;;20.88;70.47;101658.94;4996662;28;20041;-84
2022/07/21 00:49:48;;;;;;;12.23;8.52;;;;;;;20.87;71.80;101669.72;4996419;28;20036;-85
2022/07/21 00:52:14;;;;;;;11.70;9.05;;;;;;;20.83;70.86;101647.38;4996552;28;20038;-84
2022/07/21 00:54:39;;;;;;;11.63;8.95;;;;;;;20.92;71.27;101665.13;4996146;28;20034;-85
2022/07/21 00:57:06;;;;;;;11.90;9.63;;;;;;;20.81;71.56;101659.94;4995166;28;20053;-84
2022/07/21 00:59:31;;;;;;;15.30;9.45;;;;;;;20.84;71.99;101659.00;4995290;28;20084;-84
2022/07/21 01:01:57;;;;;;;11.85;9.50;;;;;;;20.82;71.62;101652.81;4994898;28;20042;-85
2022/07/21 01:04:23;;;;;;;12.52;9.88;;;;;;;20.80;71.96;101660.88;4995209;28;20118;-85
2022/07/21 01:06:48;;;;;;;9.43;8.32;;;;;;;20.88;71.04;101652.66;4994837;28;20034;-85
2022/07/21 01:09:14;;;;;;;13.45;9.38;;;;;;;20.86;71.83;101641.97;4994791;28;20030;-85
2022/07/21 01:11:40;;;;;;;11.45;9.45;;;;;;;20.78;72.02;101633.16;4995879;28;20026;-84
2022/07/21 01:14:06;;;;;;;10.68;8.63;;;;;;;20.81;71.33;101630.41;4994594;28;20093;-85
2022/07/21 01:16:32;;;;;;;13.40;9.65;;;;;;;20.73;72.23;101648.50;4995871;28;20030;-85
2022/07/21 01:18:57;;;;;;;10.63;9.48;;;;;;;20.68;72.35;101644.97;4995688;28;20356;-85
2022/07/21 01:21:34;;;;;;;11.40;9.75;;;;;;;20.51;72.89;101621.09;4978346;28;20034;-85
2022/07/21 01:24:01;;;;;;;14.48;10.20;;;;;;;20.46;73.53;101631.91;4994669;28;20028;-85
2022/07/21 01:26:28;;;;;;;13.40;10.38;;;;;;;20.46;73.72;101644.44;4995999;28;20026;-85
2022/07/21 01:28:55;;;;;;;13.18;10.68;;;;;;;20.40;73.50;101634.72;4995692;28;20351;-86
2022/07/21 01:31:20;;;;;;;12.63;10.35;;;;;;;20.35;73.63;101612.44;4995716;28;20105;-86
2022/07/21 01:33:46;;;;;;;14.07;10.27;;;;;;;20.35;73.83;101624.97;4995500;28;20125;-85
2022/07/21 01:36:11;;;;;;;12.18;10.65;;;;;;;20.30;74.89;101637.56;4995679;28;20042;-85
2022/07/21 01:41:30;;;;;;;14.15;11.45;;;;;;;20.06;75.35;101636.19;4994485;28;20049;-86
2022/07/21 01:43:57;;;;;;;15.27;10.77;;;;;;;20.04;75.99;101627.25;4994114;28;20465;-85
2022/07/21 01:46:22;;;;;;;17.02;11.23;;;;;;;19.93;76.35;101622.06;4995390;28;20054;-86
2022/07/21 01:48:48;;;;;;;14.32;10.45;;;;;;;20.01;76.35;101639.81;4994050;28;20054;-85
2022/07/21 01:51:13;;;;;;;15.20;10.63;;;;;;;20.00;76.59;101638.06;4993492;28;20038;-85
2022/07/21 01:53:39;;;;;;;14.13;10.85;;;;;;;19.95;76.91;101641.69;4995268;28;20034;-85
2022/07/21 01:56:06;;;;;;;15.07;11.43;;;;;;;19.89;77.00;101645.38;4994032;28;20057;-85
2022/07/21 01:58:31;;;;;;;13.93;10.88;;;;;;;19.77;76.93;101606.19;4995239;28;20122;-85
2022/07/21 02:00:57;;;;;;;13.93;11.60;;;;;;;19.97;77.16;101637.22;4995316;28;20062;-86
2022/07/21 02:03:22;;;;;;;15.43;10.75;;;;;;;19.94;76.55;101629.19;4994877;28;20061;-86
2022/07/21 02:05:48;;;;;;;14.98;10.90;;;;;;;19.87;76.62;101616.78;4994955;28;20062;-86
2022/07/21 02:08:13;;;;;;;14.40;11.10;;;;;;;19.76;76.56;101604.44;4993623;28;20053;-86
2022/07/21 02:10:39;;;;;;;14.80;11.07;;;;;;;20.00;76.78;101655.94;4994981;28;20029;-86
2022/07/21 02:13:04;;;;;;;14.43;11.10;;;;;;;19.93;76.89;101652.47;4994710;28;20030;-86
2022/07/21 02:15:30;;;;;;;14.32;10.57;;;;;;;19.93;76.94;101652.47;4994520;28;20374;-86
2022/07/21 02:17:57;;;;;;;12.80;10.60;;;;;;;19.96;76.64;101646.19;4994911;28;20036;-85
2022/07/21 02:20:22;;;;;;;14.40;10.73;;;;;;;19.89;77.09;101648.06;4993474;28;20030;-87
2022/07/21 02:22:48;;;;;;;16.75;11.50;;;;;;;19.83;77.36;101633.81;4994946;28;20459;-85
2022/07/21 02:25:14;;;;;;;14.52;11.18;;;;;;;19.83;77.46;101634.75;4993430;28;20530;-85
2022/07/21 02:27:40;;;;;;;15.30;11.48;;;;;;;19.85;77.20;101638.28;4993507;28;20038;-85
2022/07/21 02:30:06;;;;;;;15.00;11.05;;;;;;;19.79;76.89;101622.28;4994507;28;20030;-86
2022/07/21 02:32:32;;;;;;;13.65;11.05;;;;;;;19.94;76.25;101623.84;4994308;28;20084;-86
2022/07/21 02:34:57;;;;;;;14.27;11.38;;;;;;;20.01;75.99;101623.72;4994710;28;20026;-85
2022/07/21 02:37:22;;;;;;;15.50;11.88;;;;;;;20.02;76.16;101633.53;4993332;28;20031;-85
2022/07/21 02:39:48;;;;;;;16.40;12.20;;;;;;;19.84;77.40;101615.06;4994488;28;20536;-85
2022/07/21 02:42:14;;;;;;;14.68;11.30;;;;;;;19.92;76.99;101636.41;4994140;28;20061;-85
2022/07/21 02:44:40;;;;;;;16.42;12.02;;;;;;;19.81;77.75;101628.50;4994339;28;20038;-85
2022/07/21 02:47:05;;;;;;;15.07;12.27;;;;;;;19.89;77.67;101631.06;4992892;28;20085;-86
2022/07/21 02:49:30;;;;;;;17.70;12.45;;;;;;;19.80;77.29;101607.97;4993191;28;20034;-85
2022/07/21 02:51:56;;;;;;;14.57;12.05;;;;;;;19.90;77.21;101623.00;4993210;28;20089;-86
2022/07/21 02:54:21;;;;;;;15.07;12.27;;;;;;;19.85;77.38;101606.09;4993028;28;20454;-86
2022/07/21 02:56:47;;;;;;;16.88;12.18;;;;;;;19.93;76.91;101605.97;4976811;28;20037;-85
2022/07/21 02:59:12;;;;;;;16.48;11.77;;;;;;;19.92;77.35;101621.19;4994144;28;20440;-86
2022/07/21 03:01:37;;;;;;;16.38;12.27;;;;;;;19.95;77.50;101629.16;4994224;28;20022;-86
2022/07/21 03:04:12;;;;;;;16.58;12.75;;;;;;;19.76;77.60;101616.97;4992018;28;20026;-85
2022/07/21 03:06:38;;;;;;;18.75;13.32;;;;;;;19.77;78.36;101621.41;4994497;28;20055;-86
2022/07/21 03:09:03;;;;;;;14.82;12.48;;;;;;;19.79;78.76;101626.78;4994493;28;20517;-85
2022/07/21 03:11:29;;;;;;;17.80;13.57;;;;;;;19.64;78.19;101603.72;4992767;28;20455;-85
2022/07/21 03:13:54;;;;;;;18.25;13.13;;;;;;;19.75;78.29;101617.88;4992706;28;20030;-85
2022/07/21 03:16:19;;;;;;;17.83;13.73;;;;;;;19.70;78.74;101620.63;4993788;28;20030;-85
2022/07/21 03:18:45;;;;;;;16.52;13.30;;;;;;;19.69;78.30;101605.44;4992986;28;20030;-85
2022/07/21 03:21:10;;;;;;;17.42;13.68;;;;;;;19.73;78.39;101608.94;4993814;28;20031;-85
2022/07/21 03:23:35;;;;;;;15.43;12.68;;;;;;;19.73;77.11;101615.19;4994095;28;20033;-85
2022/07/21 03:26:01;;;;;;;19.33;14.43;;;;;;;19.65;79.36;101610.84;4993965;28;20030;-86
2022/07/21 03:28:26;;;;;;;17.10;14.55;;;;;;;19.73;78.84;101623.25;4994365;28;20030;-85
2022/07/21 03:30:52;;;;;;;19.08;14.55;;;;;;;19.69;79.00;101617.94;4992468;28;20363;-85
2022/07/21 03:33:17;;;;;;;18.38;14.52;;;;;;;19.73;78.59;101622.38;4992689;28;20041;-87
2022/07/21 03:35:42;;;;;;;17.88;13.55;;;;;;;19.69;78.45;101609.91;4993961;28;20113;-85
2022/07/21 03:38:08;;;;;;;20.30;15.07;;;;;;;19.71;78.50;101622.41;4994111;28;20026;-85
2022/07/21 03:40:36;;;;;;;20.38;14.00;;;;;;;19.62;79.12;101616.28;4992522;28;20030;-85
2022/07/21 03:43:03;;;;;;;18.10;14.65;;;;;;;19.48;79.51;101609.25;4993729;28;20466;-86
2022/07/21 03:45:30;;;;;;;18.52;14.35;;;;;;;19.57;79.47;101616.31;4993173;28;20034;-85
2022/07/21 03:48:00;;;;;;;15.32;13.45;;;;;;;19.65;78.30;101622.47;4992810;28;20041;-85
2022/07/21 03:50:26;;;;;;;19.88;13.50;;;;;;;19.68;79.09;101626.91;4993909;28;20109;-85
2022/07/21 03:52:51;;;;;;;19.40;13.73;;;;;;;19.67;79.08;101634.06;4992435;28;20041;-85
2022/07/21 03:55:18;;;;;;;19.33;13.35;;;;;;;19.64;78.98;101625.19;4993800;28;20037;-86
2022/07/21 03:57:48;;;;;;;17.35;12.88;;;;;;;19.74;78.27;101640.22;4993851;28;20037;-85
2022/07/21 04:00:20;;;;;;;18.17;14.07;;;;;;;19.72;78.67;101650.09;4993376;28;20061;-86
2022/07/21 04:02:46;;;;;;;18.83;13.40;;;;;;;19.63;79.04;101629.66;4993762;28;20022;-85
2022/07/21 04:05:13;;;;;;;19.13;13.90;;;;;;;19.68;79.08;101640.31;4993469;28;20034;-86
2022/07/21 04:07:40;;;;;;;20.70;13.95;;;;;;;19.69;78.60;101640.28;4993568;28;20463;-86
2022/07/21 04:10:06;;;;;;;19.48;13.63;;;;;;;19.57;78.85;101629.72;4992196;28;20030;-86
2022/07/21 04:12:31;;;;;;;18.27;13.77;;;;;;;19.69;78.78;101642.09;4992478;28;20040;-87
2022/07/21 04:14:56;;;;;;;19.48;13.88;;;;;;;19.69;78.78;101637.59;4995842;28;20038;-85
2022/07/21 04:17:22;;;;;;;16.50;12.75;;;;;;;19.57;77.94;101621.69;4995995;28;20147;-85
2022/07/21 04:19:48;;;;;;;17.33;13.18;;;;;;;19.73;77.94;101642.00;4996896;28;20037;-86
2022/07/21 04:22:13;;;;;;;18.60;12.70;;;;;;;19.63;78.59;101626.97;4996815;28;20033;-86
2022/07/21 04:24:39;;;;;;;17.17;12.45;;;;;;;19.66;78.55;101635.00;4963271;28;20034;-86
2022/07/21 04:27:04;;;;;;;14.90;11.48;;;;;;;19.69;77.90;101632.25;4996916;28;20065;-86
2022/07/21 04:29:29;;;;;;;17.70;11.68;;;;;;;19.76;77.80;101641.09;4995587;28;20552;-85
2022/07/21 04:31:55;;;;;;;17.02;12.43;;;;;;;19.72;77.70;101632.19;4979272;28;20110;-85
2022/07/21 04:34:20;;;;;;;16.92;11.95;;;;;;;19.73;77.80;101623.25;4999365;28;20018;-87
2022/07/21 04:36:46;;;;;;;20.98;11.95;;;;;;;19.76;78.15;101631.25;4999868;28;20374;-87
2022/07/21 04:39:11;;;;;;;16.48;12.35;;;;;;;19.75;77.90;101632.16;4996530;28;20045;-87
2022/07/21 04:41:37;;;;;;;19.88;12.05;;;;;;;19.73;78.14;101633.09;4996486;28;20026;-86
2022/07/21 04:44:02;;;;;;;19.40;11.95;;;;;;;19.64;78.99;101639.47;4994684;28;20078;-86
2022/07/21 04:46:27;;;;;;;19.58;13.00;;;;;;;19.57;79.49;101632.41;4995281;28;20033;-87
2022/07/21 04:48:53;;;;;;;16.98;12.35;;;;;;;19.52;79.78;101627.06;4996432;28;20447;-86
2022/07/21 04:51:18;;;;;;;19.67;12.35;;;;;;;19.52;80.51;101636.91;4997418;28;20113;-87
2022/07/21 04:53:43;;;;;;;19.58;12.60;;;;;;;19.37;80.88;101621.06;4994880;28;20066;-87
2022/07/21 04:56:09;;;;;;;18.08;12.07;;;;;;;19.39;80.90;101636.19;4994901;28;20026;-87
2022/07/21 04:58:34;;;;;;;17.52;12.10;;;;;;;19.54;80.83;101643.16;4995886;28;20030;-86
2022/07/21 05:00:59;;;;;;;18.02;11.77;;;;;;;19.55;80.59;101639.56;4997270;28;20469;-88
2022/07/21 05:03:25;;;;;;;19.98;12.82;;;;;;;19.44;81.32;101637.06;4994841;28;20030;-87
2022/07/21 05:05:50;;;;;;;19.48;12.07;;;;;;;19.43;81.00;101620.97;4994751;28;20030;-87
2022/07/21 05:08:16;;;;;;;17.90;11.75;;;;;;;19.54;80.42;101639.59;4994393;28;20026;-87
2022/07/21 05:10:41;;;;;;;19.55;12.20;;;;;;;19.48;80.66;101648.59;4994480;28;20061;-86
2022/07/21 05:13:09;;;;;;;15.70;12.38;;;;;;;19.37;81.13;101639.81;4994424;28;20031;-88
2022/07/21 05:15:34;;;;;;;17.65;11.90;;;;;;;19.38;81.25;101638.91;4994129;28;20031;-87
2022/07/21 05:18:00;;;;;;;17.17;12.23;;;;;;;19.45;81.52;101640.63;4995351;28;20053;-87
2022/07/21 05:20:25;;;;;;;17.25;11.70;;;;;;;19.39;81.28;101624.59;4978002;28;20139;-87
2022/07/21 05:22:50;;;;;;;17.20;11.80;;;;;;;19.45;81.51;101638.81;4995428;28;20030;-87
2022/07/21 05:25:16;;;;;;;16.05;11.68;;;;;;;19.45;80.78;101633.44;4977401;28;20378;-89
2022/07/21 05:27:41;;;;;;;16.48;11.60;;;;;;;19.49;80.41;101639.66;4977475;28;20029;-87
2022/07/21 05:30:07;;;;;;;18.17;12.02;;;;;;;19.43;80.84;101629.00;4994070;28;20061;-86
2022/07/21 05:32:33;;;;;;;17.48;11.52;;;;;;;19.46;80.92;101637.00;4995491;28;20294;-86
2022/07/21 05:34:58;;;;;;;16.70;12.23;;;;;;;19.36;80.85;101624.66;4994127;28;20393;-86
2022/07/21 05:37:24;;;;;;;16.95;11.80;;;;;;;19.44;81.26;101633.44;4994134;28;20033;-86
2022/07/21 05:39:49;;;;;;;18.13;12.30;;;;;;;19.32;81.74;101623.81;4995019;28;20292;-87
2022/07/21 05:42:14;;;;;;;18.38;12.00;;;;;;;19.36;82.30;101635.38;4993871;28;20475;-86
2022/07/21 05:44:40;;;;;;;16.52;12.00;;;;;;;19.20;82.67;101627.53;4977318;28;20386;-86
2022/07/21 05:47:05;;;;;;;18.25;12.07;;;;;;;19.27;82.46;101631.00;4995436;28;20037;-87
2022/07/21 05:49:30;;;;;;;18.48;12.05;;;;;;;19.10;82.45;101600.84;4994909;28;20034;-86
2022/07/21 05:51:56;;;;;;;18.45;11.43;;;;;;;19.20;82.57;101614.13;4994924;28;20054;-86
2022/07/21 05:54:21;;;;;;;19.60;11.02;;;;;;;19.38;81.97;101636.22;4995004;28;20117;-86
2022/07/21 05:56:47;;;;;;;19.00;12.05;;;;;;;19.36;81.68;101620.19;4994869;28;20026;-86
2022/07/21 05:59:12;;;;;;;17.15;11.25;;;;;;;19.38;81.51;101618.34;4993585;28;20062;-86
2022/07/21 06:01:37;;;;;;;16.65;11.63;;;;;;;19.41;81.23;101630.84;4994742;28;20026;-86
2022/07/21 06:04:03;;;;;;;18.65;11.75;;;;;;;19.33;81.79;101630.03;4994862;28;20114;-86
2022/07/21 06:06:28;;;;;;;22.27;11.73;;;;;;;19.38;81.29;101637.09;4993268;28;20518;-86
2022/07/21 06:08:55;;;;;;;20.77;12.73;;;;;;;19.43;81.62;101626.31;4977032;28;20026;-86
2022/07/21 06:11:20;;;;;;;20.88;12.63;;;;;;;19.46;80.94;101620.94;5000283;28;20121;-86
2022/07/21 06:13:46;;;;;;;21.23;12.88;;;;;;;19.51;81.07;101622.63;4992776;28;20116;-87
2022/07/21 06:16:12;;;;;;;17.63;13.27;;;;;;;19.64;80.72;101635.91;4994538;28;20026;-86
2022/07/21 06:18:37;;;;;;;23.88;14.32;;;;;;;19.71;80.18;101633.13;4994387;28;20542;-86
2022/07/21 06:21:04;;;;;;;24.77;14.35;;;;;;;19.80;80.07;101633.91;4995819;28;20030;-86
2022/07/21 06:23:30;;;;;;;24.33;15.27;;;;;;;19.76;80.32;101631.25;4993032;28;20038;-86
2022/07/21 06:25:56;;;;;;;24.63;15.48;;;;;;;19.80;80.00;101637.47;4992946;28;20026;-86
2022/07/21 06:28:22;;;;;;;27.20;15.75;;;;;;;19.84;80.16;101619.53;4992964;28;20030;-86
2022/07/21 06:30:48;;;;;;;28.52;16.50;;;;;;;20.04;79.61;101633.50;4994030;28;20033;-86
2022/07/21 06:33:13;;;;;;;31.13;16.17;;;;;;;20.00;79.29;101615.72;4992926;28;20408;-86
2022/07/21 06:35:39;;;;;;;26.17;16.58;;;;;;;20.13;79.32;101628.00;4992817;28;20034;-86
2022/07/21 06:38:05;;;;;;;27.85;17.50;;;;;;;20.19;77.71;101625.22;4997996;28;20412;-85
2022/07/21 06:40:31;;;;;;;31.52;18.10;;;;;;;20.41;78.02;101622.16;4993784;28;20037;-86
2022/07/21 06:42:56;;;;;;;27.20;17.83;;;;;;;20.54;77.13;101621.06;4994154;28;20061;-85
2022/07/21 06:45:23;;;;;;;29.08;18.45;;;;;;;20.69;76.30;101622.59;4992813;28;20030;-85
2022/07/21 06:47:48;;;;;;;28.20;17.42;;;;;;;20.96;75.25;101646.22;4993724;28;20027;-85
2022/07/21 06:50:14;;;;;;;25.95;17.73;;;;;;;20.88;75.34;101640.13;4993808;28;20034;-85
2022/07/21 06:52:40;;;;;;;29.33;17.55;;;;;;;20.82;74.71;101642.94;4994501;28;20043;-85
2022/07/21 06:55:07;;;;;;;27.88;18.05;;;;;;;20.85;75.57;101642.84;4993983;28;20022;-85
2022/07/21 06:57:34;;;;;;;25.40;17.25;;;;;;;20.86;75.37;101651.84;4992459;28;20038;-85
2022/07/21 06:59:59;;;;;;;27.52;17.55;;;;;;;20.84;74.84;101657.22;4993998;28;20041;-85
2022/07/21 07:02:24;;;;;;;34.17;17.80;;;;;;;20.84;75.20;101665.28;4976145;28;20026;-84
2022/07/21 07:04:50;;;;;;;29.70;17.30;;;;;;;20.85;75.41;101658.97;4993697;28;20113;-84
2022/07/21 07:07:15;;;;;;;27.25;16.65;;;;;;;20.78;74.70;101656.47;4993948;28;20062;-84
2022/07/21 07:09:41;;;;;;;27.92;16.40;;;;;;;20.74;75.74;101664.56;4993711;28;20373;-84
2022/07/21 07:12:08;;;;;;;29.98;17.58;;;;;;;20.59;75.82;101670.19;4992362;28;20022;-84
2022/07/21 07:14:35;;;;;;;24.85;16.95;;;;;;;20.53;76.54;101662.25;4992373;28;20054;-84
2022/07/21 07:17:02;;;;;;;27.13;16.85;;;;;;;20.56;76.12;101653.28;4993435;28;20022;-84
2022/07/21 07:19:27;;;;;;;25.40;16.70;;;;;;;20.62;76.34;101659.41;4992364;28;20096;-83
2022/07/21 07:21:54;;;;;;;29.23;17.63;;;;;;;20.61;76.51;101657.66;4992171;28;20463;-85
2022/07/21 07:24:19;;;;;;;21.48;16.17;;;;;;;20.54;75.85;101647.03;4993287;28;20026;-85
2022/07/21 07:26:45;;;;;;;24.95;15.65;;;;;;;20.59;75.73;101653.19;4993727;28;20073;-85
2022/07/21 07:29:11;;;;;;;24.23;15.48;;;;;;;20.70;75.25;101651.22;4992236;28;20363;-86
2022/07/21 07:31:36;;;;;;;23.02;14.90;;;;;;;20.66;75.27;101636.97;4992374;28;20035;-83
2022/07/21 07:34:02;;;;;;;26.90;16.10;;;;;;;20.81;75.52;101657.25;4993203;28;20032;-85
2022/07/21 07:36:29;;;;;;;25.20;16.02;;;;;;;20.79;75.49;101661.78;4992231;28;20033;-84
2022/07/21 07:38:55;;;;;;;25.98;16.55;;;;;;;20.72;76.61;101658.31;4993436;28;20139;-84
2022/07/21 07:41:23;;;;;;;25.13;16.33;;;;;;;20.69;76.24;101646.78;4992294;28;20053;-85
2022/07/21 07:43:49;;;;;;;24.42;16.42;;;;;;;20.69;77.87;101669.13;4992946;28;20046;-84
2022/07/21 07:46:15;;;;;;;24.65;16.23;;;;;;;20.68;77.17;101659.28;4993232;28;20176;-85
2022/07/21 07:48:41;;;;;;;30.77;16.25;;;;;;;20.66;77.08;101655.75;4976034;28;20026;-85
2022/07/21 07:51:08;;;;;;;23.25;15.60;;;;;;;20.62;75.91;101653.16;4995617;28;20096;-86
2022/07/21 07:53:34;;;;;;;22.75;14.70;;;;;;;20.48;76.85;101656.09;4996777;28;20081;-84
2022/07/21 07:56:00;;;;;;;25.70;14.23;;;;;;;20.40;77.83;101669.59;4996715;28;20475;-85
2022/07/21 07:58:26;;;;;;;23.20;12.18;;;;;;;20.34;79.05;101658.06;4996322;28;20038;-86
2022/07/21 08:00:51;;;;;;;21.70;13.23;;;;;;;20.16;80.51;101657.47;4996980;28;20049;-87
2022/07/21 08:03:17;;;;;;;15.10;11.80;;;;;;;20.09;80.75;101658.50;4979772;28;20057;-87
2022/07/21 08:05:43;;;;;;;15.13;10.07;;;;;;;20.08;81.08;101667.41;4996348;28;20359;-87
2022/07/21 08:08:08;;;;;;;15.60;10.40;;;;;;;20.00;81.95;101669.38;4978604;28;20037;-87
2022/07/21 08:10:34;;;;;;;17.35;10.23;;;;;;;19.88;82.39;101664.19;4979261;28;20030;-86
2022/07/21 08:12:59;;;;;;;13.45;9.40;;;;;;;19.89;82.97;101671.31;4996471;28;20497;-85
2022/07/21 08:15:25;;;;;;;11.98;8.65;;;;;;;19.92;82.72;101668.59;4978938;28;20053;-84
2022/07/21 08:17:50;;;;;;;14.32;9.05;;;;;;;19.81;83.16;101671.41;4995198;28;20030;-84
2022/07/21 08:20:16;;;;;;;13.13;8.60;;;;;;;19.61;83.09;101662.75;4996343;28;20045;-85
2022/07/21 08:22:41;;;;;;;11.57;8.63;;;;;;;19.48;84.20;101656.63;4979098;28;20066;-85
2022/07/21 08:25:06;;;;;;;9.25;7.70;;;;;;;19.52;84.08;101678.00;4996134;28;20386;-84
2022/07/21 08:27:32;;;;;;;8.73;7.25;;;;;;;19.47;85.13;101679.88;4995171;28;20378;-85
2022/07/21 08:30:00;;;;;;;8.95;7.53;;;;;;;19.38;84.74;101665.72;4995068;28;20035;-85
2022/07/21 08:32:26;;;;;;;8.95;6.85;;;;;;;19.45;84.18;101670.97;4994956;28;20077;-84
2022/07/21 08:34:51;;;;;;;8.30;7.00;;;;;;;19.53;84.80;101673.56;4996180;28;20026;-83
2022/07/21 08:37:20;;;;;;;8.52;6.50;;;;;;;19.49;85.07;101677.19;4994990;28;20041;-84
2022/07/21 08:39:47;;;;;;;8.88;6.95;;;;;;;19.34;85.46;101658.63;4995970;28;20084;-85
2022/07/21 08:42:13;;;;;;;9.35;6.88;;;;;;;19.43;85.26;101677.25;4994662;28;20030;-84
2022/07/21 08:44:39;;;;;;;9.45;6.78;;;;;;;19.34;85.79;101672.00;4996030;28;20030;-83
2022/07/21 08:47:05;;;;;;;7.18;6.00;;;;;;;19.42;84.97;101679.06;4994831;28;20074;-86
2022/07/21 08:49:33;;;;;;;8.50;6.53;;;;;;;19.32;85.84;101666.69;4962728;28;20034;-86
2022/07/21 08:51:59;;;;;;;7.00;6.30;;;;;;;19.38;86.45;101681.78;4994307;28;20037;-84
2022/07/21 08:54:24;;;;;;;8.93;6.07;;;;;;;19.41;86.13;101679.97;4995945;28;20116;-84
2022/07/21 08:56:50;;;;;;;7.57;6.35;;;;;;;19.42;85.76;101675.50;4994306;28;20121;-85
2022/07/21 08:59:15;;;;;;;7.45;6.20;;;;;;;19.37;86.97;101680.03;4995773;28;20038;-84
2022/07/21 09:01:41;;;;;;;8.45;6.72;;;;;;;19.40;87.37;101679.97;4995376;28;20121;-84
2022/07/21 09:04:28;;;;;;;8.93;6.25;;;;;;;19.42;86.67;101667.44;4995333;28;20313;-84
2022/07/21 09:06:57;;;;;;;8.60;6.28;;;;;;;19.57;86.17;101675.31;4994304;28;20026;-85
2022/07/21 09:09:24;;;;;;;7.95;7.03;;;;;;;19.47;86.38;101676.31;4995432;28;20026;-84
2022/07/21 09:11:50;;;;;;;10.07;7.10;;;;;;;19.24;87.10;101637.28;4995606;28;20410;-84
2022/07/21 09:14:21;;;;;;;8.25;7.05;;;;;;;19.40;87.33;101672.84;4993835;28;20088;-84
2022/07/21 09:16:57;;;;;;;9.48;8.05;;;;;;;19.36;87.52;101676.47;4994019;28;20096;-84
2022/07/21 09:19:33;;;;;;;10.02;8.02;;;;;;;19.35;87.79;101676.47;4995425;28;20093;-83
2022/07/21 09:22:03;;;;;;;12.93;7.80;;;;;;;19.39;88.08;101689.81;4995717;28;20033;-83
2022/07/21 09:24:34;;;;;;;8.95;8.05;;;;;;;19.42;88.14;101676.38;4995209;28;20030;-83
2022/07/21 09:27:12;;;;;;;11.48;8.90;;;;;;;19.55;88.46;101693.19;4995476;28;20125;-84
2022/07/21 09:29:47;;;;;;;8.98;7.72;;;;;;;19.59;87.68;101689.56;4993824;28;20026;-84
2022/07/21 09:32:16;;;;;;;10.93;6.63;;;;;;;19.69;86.69;101683.19;4994084;28;20034;-84
2022/07/21 09:34:42;;;;;;;6.82;6.13;;;;;;;19.71;86.74;101696.59;4994790;28;20018;-84
2022/07/21 09:37:08;;;;;;;8.48;6.20;;;;;;;19.74;86.37;101691.16;5009956;28;20038;-84
2022/07/21 09:39:52;;;;;;;9.65;6.57;;;;;;;19.71;86.81;101699.28;4993901;28;20105;-83
2022/07/21 09:42:26;;;;;;;7.30;6.05;;;;;;;19.81;86.49;101708.97;4995596;28;20045;-83
2022/07/21 09:45:20;;;;;;;7.18;6.00;;;;;;;19.85;86.28;101701.75;4994414;28;20451;-84
2022/07/21 09:47:46;;;;;;;6.28;5.53;;;;;;;19.89;84.54;101709.75;4991299;28;20411;-83
2022/07/21 09:50:14;;;;;;;6.15;5.25;;;;;;;19.89;84.08;101699.00;4994839;28;20122;-83
2022/07/21 09:52:42;;;;;;;7.53;6.03;;;;;;;19.93;85.19;101702.56;4994648;28;20993;-84
2022/07/21 09:55:15;;;;;;;6.43;5.40;;;;;;;20.00;84.00;101705.13;4994626;28;20030;-84
2022/07/21 09:57:44;;;;;;;6.55;5.47;;;;;;;19.99;84.38;101710.50;4994588;28;20030;-84
2022/07/21 10:00:12;;;;;;;5.93;5.10;;;;;;;20.07;84.19;101710.38;4994617;28;20081;-84
2022/07/21 10:02:38;;;;;;;6.22;4.43;;;;;;;20.02;83.29;101715.81;4994289;28;20030;-84
2022/07/21 10:05:04;;;;;;;5.80;4.68;;;;;;;19.99;84.42;101716.75;4994553;28;20109;-84
2022/07/21 10:07:30;;;;;;;5.97;4.50;;;;;;;19.93;83.85;101724.00;4993178;28;20034;-83
2022/07/21 10:09:57;;;;;;;8.32;4.03;;;;;;;19.97;83.64;101723.06;4994315;28;20446;-83
2022/07/21 10:12:23;;;;;;;5.30;4.00;;;;;;;19.98;83.49;101724.81;4993819;28;20031;-84
2022/07/21 10:14:50;;;;;;;6.28;3.85;;;;;;;19.92;82.90;101716.88;4993141;28;20027;-84
2022/07/21 10:17:17;;;;;;;5.50;4.15;;;;;;;19.95;83.14;101725.75;4992835;28;20045;-83
2022/07/21 10:20:00;;;;;;;6.13;4.20;;;;;;;19.94;83.91;101731.13;4992704;28;20030;-83
2022/07/21 10:23:06;;;;;;;4.63;4.10;;;;;;;20.02;83.02;101731.91;4992904;28;20022;-83
2022/07/21 10:25:32;;;;;;;5.32;4.53;;;;;;;19.95;84.21;101732.91;4994172;28;20033;-83
2022/07/21 10:28:18;;;;;;;6.25;4.72;;;;;;;19.98;84.29;101743.59;4993911;28;20443;-83
2022/07/21 10:30:49;;;;;;;5.00;4.30;;;;;;;19.89;84.27;101733.88;4994128;28;20084;-83
2022/07/21 10:33:20;;;;;;;6.50;4.63;;;;;;;19.91;84.62;101728.50;4992968;28;20370;-83
2022/07/21 10:35:50;;;;;;;6.05;4.60;;;;;;;19.96;83.21;101746.31;4992867;28;20076;-84
2022/07/21 10:38:27;;;;;;;7.15;4.70;;;;;;;19.96;84.24;101750.81;4994095;28;20034;-83
2022/07/21 10:40:52;;;;;;;5.95;5.10;;;;;;;19.97;83.80;101752.56;4993842;28;20040;-83
2022/07/21 10:43:24;;;;;;;6.50;5.05;;;;;;;20.01;83.79;101757.88;4992569;28;20499;-83
2022/07/21 10:45:49;;;;;;;6.43;4.97;;;;;;;19.90;83.55;101746.38;4993456;28;20049;-83
2022/07/21 10:48:36;;;;;;;7.40;5.07;;;;;;;20.07;82.62;101767.63;4993759;28;20742;-83
2022/07/21 10:51:04;;;;;;;5.78;4.80;;;;;;;20.00;82.70;101755.22;4993702;28;20022;-85
2022/07/21 10:53:29;;;;;;;7.55;5.40;;;;;;;20.08;81.72;101752.41;4992577;28;20034;-82
2022/07/21 10:55:55;;;;;;;8.07;4.75;;;;;;;20.17;81.90;101761.22;4994044;28;20033;-83
2022/07/21 10:58:29;;;;;;;7.63;5.20;;;;;;;20.21;81.64;101762.06;4992380;28;20442;-83
2022/07/21 11:00:59;;;;;;;8.05;5.00;;;;;;;20.19;80.65;101762.09;4993772;28;20022;-83
2022/07/21 11:03:29;;;;;;;8.07;5.53;;;;;;;20.11;79.78;101760.41;4993537;28;20098;-83
2022/07/21 11:06:06;;;;;;;8.40;5.45;;;;;;;20.15;81.00;101770.22;4993745;28;20022;-83
2022/07/21 11:08:33;;;;;;;10.60;5.70;;;;;;;19.98;80.21;101755.22;4993858;28;20018;-83
2022/07/21 11:11:20;;;;;;;9.35;5.57;;;;;;;19.99;80.83;101748.94;4992254;28;20030;-83
2022/07/21 11:14:00;;;;;;;9.90;5.97;;;;;;;20.01;80.57;101767.72;4993610;28;20116;-83
2022/07/21 11:16:48;;;;;;;11.65;6.30;;;;;;;19.96;80.13;101767.78;4993568;28;20022;-83